sensor_id;sensor_type;location;lat;lon;timestamp;pressure;altitude;pressure_sealevel;temperature;humidity
23619;BME280;18207;32.078;34.818;2023-07-31T00:01:15;99822.28;;;33.01;45.73
23619;BME280;18207;32.078;34.818;2023-07-31T00:03:46;99823.53;;;33.00;45.67
23619;BME280;18207;32.078;34.818;2023-07-31T00:06:16;99824.75;;;32.99;46.21
23619;BME280;18207;32.078;34.818;2023-07-31T00:08:48;99826.81;;;32.98;46.40
23619;BME280;18207;32.078;34.818;2023-07-31T00:11:19;99829.31;;;32.96;46.48
23619;BME280;18207;32.078;34.818;2023-07-31T00:13:49;99827.34;;;32.93;46.29
23619;BME280;18207;32.078;34.818;2023-07-31T00:16:20;99829.81;;;32.91;46.35
23619;BME280;18207;32.078;34.818;2023-07-31T00:18:50;99832.75;;;32.88;45.72
23619;BME280;18207;32.078;34.818;2023-07-31T00:21:20;99835.22;;;32.86;46.56
23619;BME280;18207;32.078;34.818;2023-07-31T00:23:52;99831.22;;;32.83;46.53
23619;BME280;18207;32.078;34.818;2023-07-31T00:26:22;99831.69;;;32.82;46.52
23619;BME280;18207;32.078;34.818;2023-07-31T00:28:52;99821.91;;;32.83;45.86
23619;BME280;18207;32.078;34.818;2023-07-31T00:31:23;99826.34;;;32.84;46.52
23619;BME280;18207;32.078;34.818;2023-07-31T00:33:53;99823.06;;;32.85;46.07
23619;BME280;18207;32.078;34.818;2023-07-31T00:36:23;99827.13;;;32.84;45.87
23619;BME280;18207;32.078;34.818;2023-07-31T00:38:55;99827.50;;;32.86;46.53
23619;BME280;18207;32.078;34.818;2023-07-31T00:41:25;99824.66;;;32.86;46.45
23619;BME280;18207;32.078;34.818;2023-07-31T00:43:56;99821.34;;;32.88;46.38
23619;BME280;18207;32.078;34.818;2023-07-31T00:46:26;99826.63;;;32.89;46.20
23619;BME280;18207;32.078;34.818;2023-07-31T00:48:57;99821.34;;;32.88;46.55
23619;BME280;18207;32.078;34.818;2023-07-31T00:51:27;99821.81;;;32.86;46.26
23619;BME280;18207;32.078;34.818;2023-07-31T00:54:00;99812.13;;;32.84;46.48
23619;BME280;18207;32.078;34.818;2023-07-31T00:56:32;99811.75;;;32.82;46.13
23619;BME280;18207;32.078;34.818;2023-07-31T00:59:02;99809.31;;;32.80;46.68
23619;BME280;18207;32.078;34.818;2023-07-31T01:01:33;99807.38;;;32.77;45.94
23619;BME280;18207;32.078;34.818;2023-07-31T01:04:03;99811.00;;;32.78;46.13
23619;BME280;18207;32.078;34.818;2023-07-31T01:06:43;99824.47;;;32.77;45.99
23619;BME280;18207;32.078;34.818;2023-07-31T01:09:28;99815.91;;;32.77;46.17
23619;BME280;18207;32.078;34.818;2023-07-31T01:12:03;99817.94;;;32.77;46.13
23619;BME280;18207;32.078;34.818;2023-07-31T01:14:34;99820.78;;;32.77;46.40
23619;BME280;18207;32.078;34.818;2023-07-31T01:17:04;99824.47;;;32.77;46.68
23619;BME280;18207;32.078;34.818;2023-07-31T01:19:35;99823.22;;;32.78;46.71
23619;BME280;18207;32.078;34.818;2023-07-31T01:22:32;99829.69;;;32.79;46.74
23619;BME280;18207;32.078;34.818;2023-07-31T01:25:23;99832.19;;;32.77;46.28
23619;BME280;18207;32.078;34.818;2023-07-31T01:28:09;99831.03;;;32.74;46.77
23619;BME280;18207;32.078;34.818;2023-07-31T01:30:47;99832.72;;;32.72;46.73
23619;BME280;18207;32.078;34.818;2023-07-31T01:33:19;99842.13;;;32.69;46.22
23619;BME280;18207;32.078;34.818;2023-07-31T01:35:49;99834.03;;;32.67;46.74
23619;BME280;18207;32.078;34.818;2023-07-31T01:38:21;99838.91;;;32.67;46.42
23619;BME280;18207;32.078;34.818;2023-07-31T01:40:52;99840.50;;;32.68;46.93
23619;BME280;18207;32.078;34.818;2023-07-31T01:43:25;99834.03;;;32.67;46.72
23619;BME280;18207;32.078;34.818;2023-07-31T01:45:55;99830.75;;;32.69;46.74
23619;BME280;18207;32.078;34.818;2023-07-31T01:48:25;99833.59;;;32.69;47.00
23619;BME280;18207;32.078;34.818;2023-07-31T01:50:56;99827.44;;;32.70;46.25
23619;BME280;18207;32.078;34.818;2023-07-31T01:53:31;99840.44;;;32.71;46.35
23619;BME280;18207;32.078;34.818;2023-07-31T01:56:02;99837.59;;;32.71;46.34
23619;BME280;18207;32.078;34.818;2023-07-31T01:58:34;99831.47;;;32.73;46.30
23619;BME280;18207;32.078;34.818;2023-07-31T02:01:04;99836.34;;;32.72;46.39
23619;BME280;18207;32.078;34.818;2023-07-31T02:03:34;99835.09;;;32.73;47.02
23619;BME280;18207;32.078;34.818;2023-07-31T02:06:04;99835.09;;;32.73;46.23
23619;BME280;18207;32.078;34.818;2023-07-31T02:08:35;99841.63;;;32.74;46.35
23619;BME280;18207;32.078;34.818;2023-07-31T02:11:05;99835.94;;;32.74;46.95
23619;BME280;18207;32.078;34.818;2023-07-31T02:13:41;99844.47;;;32.74;46.61
23619;BME280;18207;32.078;34.818;2023-07-31T02:16:11;99843.22;;;32.75;46.86
23619;BME280;18207;32.078;34.818;2023-07-31T02:18:42;99836.72;;;32.74;46.70
23619;BME280;18207;32.078;34.818;2023-07-31T02:21:12;99835.09;;;32.73;46.97
23619;BME280;18207;32.078;34.818;2023-07-31T02:23:42;99844.47;;;32.74;46.33
23619;BME280;18207;32.078;34.818;2023-07-31T02:26:12;99850.94;;;32.74;47.00
23619;BME280;18207;32.078;34.818;2023-07-31T02:28:44;99849.34;;;32.73;46.90
23619;BME280;18207;32.078;34.818;2023-07-31T02:31:14;99845.34;;;32.71;46.32
23619;BME280;18207;32.078;34.818;2023-07-31T02:33:49;99850.28;;;32.67;46.31
23619;BME280;18207;32.078;34.818;2023-07-31T02:36:19;99845.06;;;32.65;46.95
23619;BME280;18207;32.078;34.818;2023-07-31T02:38:49;99849.97;;;32.65;46.95
23619;BME280;18207;32.078;34.818;2023-07-31T02:41:20;99847.91;;;32.65;47.07
23619;BME280;18207;32.078;34.818;2023-07-31T02:43:52;99859.28;;;32.65;46.96
23619;BME280;18207;32.078;34.818;2023-07-31T02:46:22;99856.00;;;32.67;46.37
23619;BME280;18207;32.078;34.818;2023-07-31T02:48:53;99856.81;;;32.67;46.83
23619;BME280;18207;32.078;34.818;2023-07-31T02:51:23;99856.00;;;32.67;46.44
23619;BME280;18207;32.078;34.818;2023-07-31T02:53:53;99864.53;;;32.67;47.00
23619;BME280;18207;32.078;34.818;2023-07-31T02:56:24;99866.66;;;32.63;46.48
23619;BME280;18207;32.078;34.818;2023-07-31T02:58:56;99870.81;;;32.58;47.13
23619;BME280;18207;32.078;34.818;2023-07-31T03:01:26;99869.59;;;32.56;46.46
23619;BME280;18207;32.078;34.818;2023-07-31T03:03:56;99870.88;;;32.55;47.11
23619;BME280;18207;32.078;34.818;2023-07-31T03:06:26;99876.56;;;32.55;46.98
23619;BME280;18207;32.078;34.818;2023-07-31T03:08:56;99871.28;;;32.53;46.38
23619;BME280;18207;32.078;34.818;2023-07-31T03:11:27;99866.84;;;32.52;46.46
23619;BME280;18207;32.078;34.818;2023-07-31T03:13:58;99865.19;;;32.55;46.43
23619;BME280;18207;32.078;34.818;2023-07-31T03:16:29;99864.72;;;32.56;47.12
23619;BME280;18207;32.078;34.818;2023-07-31T03:18:59;99865.97;;;32.55;46.82
23619;BME280;18207;32.078;34.818;2023-07-31T03:21:29;99867.22;;;32.54;46.45
23619;BME280;18207;32.078;34.818;2023-07-31T03:24:00;99874.97;;;32.54;47.14
23619;BME280;18207;32.078;34.818;2023-07-31T03:26:40;99872.09;;;32.54;46.49
23619;BME280;18207;32.078;34.818;2023-07-31T03:29:13;99873.34;;;32.53;46.75
23619;BME280;18207;32.078;34.818;2023-07-31T03:31:43;99878.59;;;32.54;47.24
23619;BME280;18207;32.078;34.818;2023-07-31T03:34:13;99871.38;;;32.50;46.97
23619;BME280;18207;32.078;34.818;2023-07-31T03:36:43;99872.22;;;32.47;46.60
23619;BME280;18207;32.078;34.818;2023-07-31T03:39:13;99870.63;;;32.46;46.65
23619;BME280;18207;32.078;34.818;2023-07-31T03:41:44;99877.59;;;32.45;47.38
23619;BME280;18207;32.078;34.818;2023-07-31T03:44:16;99873.13;;;32.44;47.41
23619;BME280;18207;32.078;34.818;2023-07-31T03:46:47;99874.75;;;32.45;47.22
23619;BME280;18207;32.078;34.818;2023-07-31T03:49:17;99880.06;;;32.43;46.87
23619;BME280;18207;32.078;34.818;2023-07-31T03:51:47;99882.53;;;32.41;46.78
23619;BME280;18207;32.078;34.818;2023-07-31T03:54:17;99883.78;;;32.40;46.80
23619;BME280;18207;32.078;34.818;2023-07-31T03:56:47;99885.38;;;32.41;46.77
23619;BME280;18207;32.078;34.818;2023-07-31T03:59:19;99882.09;;;32.42;47.43
23619;BME280;18207;32.078;34.818;2023-07-31T04:01:50;99883.31;;;32.41;46.76
23619;BME280;18207;32.078;34.818;2023-07-31T04:04:19;99885.75;;;32.43;46.78
23619;BME280;18207;32.078;34.818;2023-07-31T04:06:50;99882.00;;;32.46;47.39
23619;BME280;18207;32.078;34.818;2023-07-31T04:09:20;99885.22;;;32.48;47.47
23619;BME280;18207;32.078;34.818;2023-07-31T04:11:50;99891.66;;;32.52;47.42
23619;BME280;18207;32.078;34.818;2023-07-31T04:14:23;99898.88;;;32.56;46.96
23619;BME280;18207;32.078;34.818;2023-07-31T04:16:53;99911.47;;;32.59;46.93
23619;BME280;18207;32.078;34.818;2023-07-31T04:19:24;99904.53;;;32.60;46.95
23619;BME280;18207;32.078;34.818;2023-07-31T04:21:54;99910.59;;;32.62;46.75
23619;BME280;18207;32.078;34.818;2023-07-31T04:24:25;99922.34;;;32.64;47.10
23619;BME280;18207;32.078;34.818;2023-07-31T04:26:55;99921.13;;;32.65;46.85
23619;BME280;18207;32.078;34.818;2023-07-31T04:29:28;99917.38;;;32.68;47.49
23619;BME280;18207;32.078;34.818;2023-07-31T04:31:57;99916.13;;;32.69;46.99
23619;BME280;18207;32.078;34.818;2023-07-31T04:34:27;99918.53;;;32.70;46.89
23619;BME280;18207;32.078;34.818;2023-07-31T04:36:57;99921.31;;;32.74;46.94
23619;BME280;18207;32.078;34.818;2023-07-31T04:39:27;99920.88;;;32.75;46.75
23619;BME280;18207;32.078;34.818;2023-07-31T04:41:57;99922.03;;;32.78;46.72
23619;BME280;18207;32.078;34.818;2023-07-31T04:44:29;99924.00;;;32.81;47.33
23619;BME280;18207;32.078;34.818;2023-07-31T04:47:00;99928.03;;;32.83;47.43
23619;BME280;18207;32.078;34.818;2023-07-31T04:49:30;99936.50;;;32.87;46.85
23619;BME280;18207;32.078;34.818;2023-07-31T04:52:00;99936.84;;;32.89;46.71
23619;BME280;18207;32.078;34.818;2023-07-31T04:54:31;99940.53;;;32.89;46.77
23619;BME280;18207;32.078;34.818;2023-07-31T04:57:02;99943.72;;;32.91;46.80
23619;BME280;18207;32.078;34.818;2023-07-31T04:59:36;99943.28;;;32.93;46.73
23619;BME280;18207;32.078;34.818;2023-07-31T05:02:08;99950.94;;;32.96;46.85
23619;BME280;18207;32.078;34.818;2023-07-31T05:04:39;99948.47;;;32.98;46.79
23619;BME280;18207;32.078;34.818;2023-07-31T05:07:09;99947.59;;;33.01;46.70
23619;BME280;18207;32.078;34.818;2023-07-31T05:09:39;99950.81;;;33.03;47.31
23619;BME280;18207;32.078;34.818;2023-07-31T05:12:09;99955.59;;;33.06;46.73
23619;BME280;18207;32.078;34.818;2023-07-31T05:14:42;99958.81;;;33.08;46.79
23619;BME280;18207;32.078;34.818;2023-07-31T05:17:14;99967.75;;;33.10;46.67
23619;BME280;18207;32.078;34.818;2023-07-31T05:19:44;99963.22;;;33.12;46.67
23619;BME280;18207;32.078;34.818;2023-07-31T05:22:15;99965.66;;;33.14;47.16
23619;BME280;18207;32.078;34.818;2023-07-31T05:24:45;99966.81;;;33.16;47.04
23619;BME280;18207;32.078;34.818;2023-07-31T05:27:16;99970.81;;;33.18;47.22
23619;BME280;18207;32.078;34.818;2023-07-31T05:29:48;99970.31;;;33.23;47.18
23619;BME280;18207;32.078;34.818;2023-07-31T05:32:18;99966.56;;;33.26;46.93
23619;BME280;18207;32.078;34.818;2023-07-31T05:34:52;99968.53;;;33.29;47.08
23619;BME280;18207;32.078;34.818;2023-07-31T05:37:22;99970.53;;;33.32;46.81
23619;BME280;18207;32.078;34.818;2023-07-31T05:39:53;99961.06;;;33.35;46.55
23619;BME280;18207;32.078;34.818;2023-07-31T05:42:23;99963.84;;;33.39;46.55
23619;BME280;18207;32.078;34.818;2023-07-31T05:44:55;99973.13;;;33.43;46.32
23619;BME280;18207;32.078;34.818;2023-07-31T05:47:25;99971.41;;;33.45;46.32
23619;BME280;18207;32.078;34.818;2023-07-31T05:49:55;99975.00;;;33.49;46.88
23619;BME280;18207;32.078;34.818;2023-07-31T05:52:26;99975.38;;;33.51;46.51
23619;BME280;18207;32.078;34.818;2023-07-31T05:54:57;99980.53;;;33.56;46.24
23619;BME280;18207;32.078;34.818;2023-07-31T05:57:27;99974.34;;;33.61;46.51
23619;BME280;18207;32.078;34.818;2023-07-31T05:59:59;99967.31;;;33.66;46.19
23619;BME280;18207;32.078;34.818;2023-07-31T06:02:29;99961.97;;;33.68;46.16
23619;BME280;18207;32.078;34.818;2023-07-31T06:05:05;99965.53;;;33.72;46.63
23619;BME280;18207;32.078;34.818;2023-07-31T06:07:36;99958.94;;;33.75;46.12
23619;BME280;18207;32.078;34.818;2023-07-31T06:10:07;99964.09;;;33.80;46.44
23619;BME280;18207;32.078;34.818;2023-07-31T06:12:37;99965.19;;;33.86;46.12
23619;BME280;18207;32.078;34.818;2023-07-31T06:15:10;99961.00;;;33.90;46.30
23619;BME280;18207;32.078;34.818;2023-07-31T06:17:41;99967.41;;;33.94;46.43
23619;BME280;18207;32.078;34.818;2023-07-31T06:20:11;99970.53;;;34.00;45.83
23619;BME280;18207;32.078;34.818;2023-07-31T06:22:42;99967.16;;;34.04;45.68
23619;BME280;18207;32.078;34.818;2023-07-31T06:25:13;99959.31;;;34.08;46.29
23619;BME280;18207;32.078;34.818;2023-07-31T06:27:43;99961.19;;;34.15;45.86
23619;BME280;18207;32.078;34.818;2023-07-31T06:30:16;99970.84;;;34.21;45.90
23619;BME280;18207;32.078;34.818;2023-07-31T06:32:46;99964.22;;;34.24;45.99
23619;BME280;18207;32.078;34.818;2023-07-31T06:35:16;99968.16;;;34.30;45.94
23619;BME280;18207;32.078;34.818;2023-07-31T06:37:46;99964.31;;;34.36;45.30
23619;BME280;18207;32.078;34.818;2023-07-31T06:40:17;99958.03;;;34.41;45.88
23619;BME280;18207;32.078;34.818;2023-07-31T06:42:47;99963.56;;;34.48;45.74
23619;BME280;18207;32.078;34.818;2023-07-31T06:45:20;99967.47;;;34.54;45.37
23619;BME280;18207;32.078;34.818;2023-07-31T06:47:50;99968.56;;;34.60;45.47
23619;BME280;18207;32.078;34.818;2023-07-31T06:50:21;99971.31;;;34.64;45.26
23619;BME280;18207;32.078;34.818;2023-07-31T06:52:51;99967.09;;;34.68;45.55
23619;BME280;18207;32.078;34.818;2023-07-31T06:55:22;99974.31;;;34.73;45.47
23619;BME280;18207;32.078;34.818;2023-07-31T06:57:55;99970.91;;;34.78;44.74
23619;BME280;18207;32.078;34.818;2023-07-31T07:00:28;99976.88;;;34.83;44.80
23619;BME280;18207;32.078;34.818;2023-07-31T07:02:58;99966.97;;;34.88;44.82
23619;BME280;18207;32.078;34.818;2023-07-31T07:05:29;99972.09;;;34.92;44.87
23619;BME280;18207;32.078;34.818;2023-07-31T07:07:59;99963.44;;;34.96;44.60
23619;BME280;18207;32.078;34.818;2023-07-31T07:10:29;99968.25;;;34.99;44.55
23619;BME280;18207;32.078;34.818;2023-07-31T07:12:59;99964.03;;;35.03;44.35
23619;BME280;18207;32.078;34.818;2023-07-31T07:15:31;99959.41;;;35.09;44.59
23619;BME280;18207;32.078;34.818;2023-07-31T07:18:01;99959.63;;;35.15;44.90
23619;BME280;18207;32.078;34.818;2023-07-31T07:20:32;99960.69;;;35.21;44.33
23619;BME280;18207;32.078;34.818;2023-07-31T07:23:02;99956.91;;;35.24;44.73
23619;BME280;18207;32.078;34.818;2023-07-31T07:25:33;99954.28;;;35.29;44.06
23619;BME280;18207;32.078;34.818;2023-07-31T07:28:03;99959.53;;;35.31;44.26
23619;BME280;18207;32.078;34.818;2023-07-31T07:30:36;99968.78;;;35.35;43.98
23619;BME280;18207;32.078;34.818;2023-07-31T07:33:07;99957.28;;;35.38;44.07
23619;BME280;18207;32.078;34.818;2023-07-31T07:35:37;99960.03;;;35.42;44.03
23619;BME280;18207;32.078;34.818;2023-07-31T07:38:07;99952.94;;;35.46;43.73
23619;BME280;18207;32.078;34.818;2023-07-31T07:40:39;99948.25;;;35.52;44.11
23619;BME280;18207;32.078;34.818;2023-07-31T07:43:10;99946.53;;;35.55;44.48
23619;BME280;18207;32.078;34.818;2023-07-31T07:45:42;99947.25;;;35.59;43.77
23619;BME280;18207;32.078;34.818;2023-07-31T07:48:12;99940.63;;;35.62;44.24
23619;BME280;18207;32.078;34.818;2023-07-31T07:50:42;99948.59;;;35.67;44.32
23619;BME280;18207;32.078;34.818;2023-07-31T07:53:12;99945.63;;;35.70;43.94
23619;BME280;18207;32.078;34.818;2023-07-31T07:55:46;99946.31;;;35.74;43.55
23619;BME280;18207;32.078;34.818;2023-07-31T07:58:16;99955.25;;;35.76;43.66
23619;BME280;18207;32.078;34.818;2023-07-31T08:00:51;99948.16;;;35.81;43.80
23619;BME280;18207;32.078;34.818;2023-07-31T08:03:22;99945.66;;;35.83;44.19
23619;BME280;18207;32.078;34.818;2023-07-31T08:05:58;99936.94;;;35.86;43.65
23619;BME280;18207;32.078;34.818;2023-07-31T08:08:28;99938.41;;;35.90;43.99
23619;BME280;18207;32.078;34.818;2023-07-31T08:10:59;99932.56;;;35.94;43.69
23619;BME280;18207;32.078;34.818;2023-07-31T08:13:35;99936.56;;;35.96;43.75
23619;BME280;18207;32.078;34.818;2023-07-31T08:16:08;99929.63;;;35.97;43.85
23619;BME280;18207;32.078;34.818;2023-07-31T08:18:39;99932.00;;;35.99;43.89
23619;BME280;18207;32.078;34.818;2023-07-31T08:21:11;99930.31;;;36.01;43.39
23619;BME280;18207;32.078;34.818;2023-07-31T08:23:41;99932.69;;;36.03;43.63
23619;BME280;18207;32.078;34.818;2023-07-31T08:26:15;99924.47;;;36.05;43.21
23619;BME280;18207;32.078;34.818;2023-07-31T08:28:47;99919.53;;;36.05;43.17
23619;BME280;18207;32.078;34.818;2023-07-31T08:31:19;99914.63;;;36.06;43.18
23619;BME280;18207;32.078;34.818;2023-07-31T08:33:49;99913.34;;;36.07;42.97
23619;BME280;18207;32.078;34.818;2023-07-31T08:36:19;99905.91;;;36.09;43.26
23619;BME280;18207;32.078;34.818;2023-07-31T08:38:50;99914.03;;;36.11;43.49
23619;BME280;18207;32.078;34.818;2023-07-31T08:41:20;99906.91;;;36.15;43.54
23619;BME280;18207;32.078;34.818;2023-07-31T08:43:52;99908.84;;;36.18;43.59
23619;BME280;18207;32.078;34.818;2023-07-31T08:46:25;99901.41;;;36.21;43.40
23619;BME280;18207;32.078;34.818;2023-07-31T08:48:56;99909.97;;;36.21;43.24
23619;BME280;18207;32.078;34.818;2023-07-31T08:51:27;99908.38;;;36.20;43.30
23619;BME280;18207;32.078;34.818;2023-07-31T08:53:57;99909.97;;;36.21;43.25
23619;BME280;18207;32.078;34.818;2023-07-31T08:56:28;99908.72;;;36.22;42.91
23619;BME280;18207;32.078;34.818;2023-07-31T08:59:02;99905.06;;;36.21;42.86
23619;BME280;18207;32.078;34.818;2023-07-31T09:01:43;99908.72;;;36.22;43.11
23619;BME280;18207;32.078;34.818;2023-07-31T09:04:20;99907.13;;;36.21;42.87
23619;BME280;18207;32.078;34.818;2023-07-31T09:06:57;99900.13;;;36.22;43.13
23619;BME280;18207;32.078;34.818;2023-07-31T09:09:32;99902.22;;;36.21;43.05
23619;BME280;18207;32.078;34.818;2023-07-31T09:12:02;99899.34;;;36.21;42.77
23619;BME280;18207;32.078;34.818;2023-07-31T09:14:34;99903.00;;;36.22;43.08
23619;BME280;18207;32.078;34.818;2023-07-31T09:17:07;99899.66;;;36.23;43.27
23619;BME280;18207;32.078;34.818;2023-07-31T09:19:37;99894.75;;;36.24;42.96
23619;BME280;18207;32.078;34.818;2023-07-31T09:22:09;99892.22;;;36.26;42.74
23619;BME280;18207;32.078;34.818;2023-07-31T09:24:40;99893.84;;;36.27;42.57
23619;BME280;18207;32.078;34.818;2023-07-31T09:27:10;99896.22;;;36.28;42.90
23619;BME280;18207;32.078;34.818;2023-07-31T09:29:41;99894.16;;;36.29;43.21
23619;BME280;18207;32.078;34.818;2023-07-31T09:32:18;99885.91;;;36.31;43.34
23619;BME280;18207;32.078;34.818;2023-07-31T09:34:49;99887.97;;;36.30;42.77
23619;BME280;18207;32.078;34.818;2023-07-31T09:37:19;99885.13;;;36.30;42.83
23619;BME280;18207;32.078;34.818;2023-07-31T09:39:49;99880.16;;;36.31;43.06
23619;BME280;18207;32.078;34.818;2023-07-31T09:42:27;99881.78;;;36.32;42.99
23619;BME280;18207;32.078;34.818;2023-07-31T09:45:08;99885.13;;;36.30;42.83
23619;BME280;18207;32.078;34.818;2023-07-31T09:47:48;99881.44;;;36.30;42.89
23619;BME280;18207;32.078;34.818;2023-07-31T09:50:20;99882.69;;;36.29;42.80
23619;BME280;18207;32.078;34.818;2023-07-31T09:52:51;99882.69;;;36.29;42.67
23619;BME280;18207;32.078;34.818;2023-07-31T09:55:22;99878.56;;;36.30;42.97
23619;BME280;18207;32.078;34.818;2023-07-31T09:57:55;99884.28;;;36.30;42.81
23619;BME280;18207;32.078;34.818;2023-07-31T10:00:28;99884.28;;;36.30;42.68
23619;BME280;18207;32.078;34.818;2023-07-31T10:03:06;99880.16;;;36.31;42.85
23619;BME280;18207;32.078;34.818;2023-07-31T10:05:40;99879.38;;;36.30;42.75
23619;BME280;18207;32.078;34.818;2023-07-31T10:08:15;99880.16;;;36.31;42.89
23619;BME280;18207;32.078;34.818;2023-07-31T10:10:46;99876.38;;;36.34;43.21
23619;BME280;18207;32.078;34.818;2023-07-31T10:13:17;99888.19;;;36.36;42.86
23619;BME280;18207;32.078;34.818;2023-07-31T10:15:51;99889.44;;;36.35;43.26
23619;BME280;18207;32.078;34.818;2023-07-31T10:18:24;99883.25;;;36.36;43.24
23619;BME280;18207;32.078;34.818;2023-07-31T10:20:56;99882.13;;;36.34;42.80
23619;BME280;18207;32.078;34.818;2023-07-31T10:23:27;99884.63;;;36.32;42.87
23619;BME280;18207;32.078;34.818;2023-07-31T10:25:59;99880.16;;;36.31;42.66
23619;BME280;18207;32.078;34.818;2023-07-31T10:28:32;99876.97;;;36.29;42.46
23619;BME280;18207;32.078;34.818;2023-07-31T10:31:06;99876.19;;;36.28;42.46
23619;BME280;18207;32.078;34.818;2023-07-31T10:33:41;99874.09;;;36.29;42.78
23619;BME280;18207;32.078;34.818;2023-07-31T10:36:18;99878.56;;;36.30;42.48
23619;BME280;18207;32.078;34.818;2023-07-31T10:38:50;99872.06;;;36.29;42.71
23619;BME280;18207;32.078;34.818;2023-07-31T10:41:29;99869.06;;;36.33;43.02
23619;BME280;18207;32.078;34.818;2023-07-31T10:44:01;99860.00;;;36.34;42.54
23619;BME280;18207;32.078;34.818;2023-07-31T10:46:33;99872.59;;;36.37;42.87
23619;BME280;18207;32.078;34.818;2023-07-31T10:49:05;99867.19;;;36.39;42.84
23619;BME280;18207;32.078;34.818;2023-07-31T10:51:36;99859.41;;;36.39;43.14
23619;BME280;18207;32.078;34.818;2023-07-31T10:54:14;99863.41;;;36.42;42.38
23619;BME280;18207;32.078;34.818;2023-07-31T10:56:46;99871.22;;;36.41;42.89
23619;BME280;18207;32.078;34.818;2023-07-31T10:59:16;99868.34;;;36.41;42.78
23619;BME280;18207;32.078;34.818;2023-07-31T11:01:52;99858.47;;;36.42;42.66
23619;BME280;18207;32.078;34.818;2023-07-31T11:04:25;99857.69;;;36.42;42.60
23619;BME280;18207;32.078;34.818;2023-07-31T11:07:00;99861.81;;;36.41;42.35
23619;BME280;18207;32.078;34.818;2023-07-31T11:09:32;99860.53;;;36.42;42.28
23619;BME280;18207;32.078;34.818;2023-07-31T11:12:04;99851.16;;;36.41;42.54
23619;BME280;18207;32.078;34.818;2023-07-31T11:14:35;99859.41;;;36.39;42.54
23619;BME280;18207;32.078;34.818;2023-07-31T11:17:07;99858.94;;;36.41;42.23
23619;BME280;18207;32.078;34.818;2023-07-31T11:19:39;99848.75;;;36.40;42.51
23619;BME280;18207;32.078;34.818;2023-07-31T11:22:10;99854.47;;;36.40;42.20
23619;BME280;18207;32.078;34.818;2023-07-31T11:24:42;99844.63;;;36.41;42.78
23619;BME280;18207;32.078;34.818;2023-07-31T11:27:12;99840.06;;;36.43;42.31
23619;BME280;18207;32.078;34.818;2023-07-31T11:29:43;99837.53;;;36.45;42.32
23619;BME280;18207;32.078;34.818;2023-07-31T11:32:16;99848.53;;;36.47;42.63
23619;BME280;18207;32.078;34.818;2023-07-31T11:34:54;99842.34;;;36.48;42.44
23619;BME280;18207;32.078;34.818;2023-07-31T11:37:38;99853.78;;;36.48;42.76
23619;BME280;18207;32.078;34.818;2023-07-31T11:40:10;99846.94;;;36.46;42.52
23619;BME280;18207;32.078;34.818;2023-07-31T11:42:41;99851.06;;;36.45;42.77
23619;BME280;18207;32.078;34.818;2023-07-31T11:45:11;99849.47;;;36.44;41.87
23619;BME280;18207;32.078;34.818;2023-07-31T11:47:42;99843.38;;;36.42;42.23
23619;BME280;18207;32.078;34.818;2023-07-31T11:50:13;99841.75;;;36.41;42.10
23619;BME280;18207;32.078;34.818;2023-07-31T11:52:46;99848.75;;;36.40;42.63
23619;BME280;18207;32.078;34.818;2023-07-31T11:55:21;99845.09;;;36.39;42.21
23619;BME280;18207;32.078;34.818;2023-07-31T11:57:52;99843.03;;;36.40;42.19
23619;BME280;18207;32.078;34.818;2023-07-31T12:00:24;99843.03;;;36.40;42.09
23619;BME280;18207;32.078;34.818;2023-07-31T12:02:55;99842.69;;;36.38;42.28
23619;BME280;18207;32.078;34.818;2023-07-31T12:05:28;99834.56;;;36.36;42.11
23619;BME280;18207;32.078;34.818;2023-07-31T12:07:58;99831.38;;;36.34;41.98
23619;BME280;18207;32.078;34.818;2023-07-31T12:10:30;99833.09;;;36.32;42.40
23619;BME280;18207;32.078;34.818;2023-07-31T12:13:04;99830.25;;;36.32;42.39
23619;BME280;18207;32.078;34.818;2023-07-31T12:15:38;99841.22;;;36.33;42.54
23619;BME280;18207;32.078;34.818;2023-07-31T12:18:11;99833.88;;;36.32;42.66
23619;BME280;18207;32.078;34.818;2023-07-31T12:20:45;99827.03;;;36.30;42.60
23619;BME280;18207;32.078;34.818;2023-07-31T12:23:18;99823.84;;;36.28;42.49
23619;BME280;18207;32.078;34.818;2023-07-31T12:26:01;99833.72;;;36.27;42.76
23619;BME280;18207;32.078;34.818;2023-07-31T12:28:35;99827.19;;;36.26;42.46
23619;BME280;18207;32.078;34.818;2023-07-31T12:31:08;99828.91;;;36.24;42.60
23619;BME280;18207;32.078;34.818;2023-07-31T12:33:40;99829.06;;;36.20;42.35
23619;BME280;18207;32.078;34.818;2023-07-31T12:36:14;99832.34;;;36.19;42.39
23619;BME280;18207;32.078;34.818;2023-07-31T12:38:46;99831.69;;;36.15;42.63
23619;BME280;18207;32.078;34.818;2023-07-31T12:41:16;99834.22;;;36.13;42.71
23619;BME280;18207;32.078;34.818;2023-07-31T12:43:46;99835.47;;;36.12;42.62
23619;BME280;18207;32.078;34.818;2023-07-31T12:46:16;99829.41;;;36.10;42.31
23619;BME280;18207;32.078;34.818;2023-07-31T12:48:46;99828.63;;;36.09;42.33
23619;BME280;18207;32.078;34.818;2023-07-31T12:51:18;99831.16;;;36.07;42.49
23619;BME280;18207;32.078;34.818;2023-07-31T12:53:49;99835.75;;;36.05;42.25
23619;BME280;18207;32.078;34.818;2023-07-31T12:56:19;99826.81;;;36.03;42.19
23619;BME280;18207;32.078;34.818;2023-07-31T12:58:49;99817.91;;;36.01;42.21
23619;BME280;18207;32.078;34.818;2023-07-31T13:01:18;99826.94;;;35.99;42.11
23619;BME280;18207;32.078;34.818;2023-07-31T13:03:49;99815.94;;;35.98;42.45
23619;BME280;18207;32.078;34.818;2023-07-31T13:06:22;99816.75;;;35.98;42.26
23619;BME280;18207;32.078;34.818;2023-07-31T13:08:53;99816.38;;;35.96;42.86
23619;BME280;18207;32.078;34.818;2023-07-31T13:11:23;99814.78;;;35.95;42.09
23619;BME280;18207;32.078;34.818;2023-07-31T13:13:53;99815.25;;;35.94;42.50